Veronica — IFNU — position and weather

sailwx.info

Track history (hours):
 
Tides and Currents Weather Stations Pressure Air Temp Water Temp Dewpoint Dewpoint Depression Visibility Wind Speed Wind Dir Waves Ship Positions

Veronica

Last reported at 2017-Aug-30 14:28 UTC. Time now 2017-Oct-19 21:51 UTC.
Position N 39°28' E 007°55'.
Warning: this ship's position is 50 days out of date.

Length 30 m.

Type: Fishing. MMSI: 247151990.

Date/timePositionNaut miles runAvg speedWind from/ knotsBaromVisibWave heightAir tempDewpointWater temp
2017-Aug-30 14:28N 39°28' E 007°55'7 2.0
2017-Aug-30 11:11N 39°23' E 007°50'0 0.7
2017-Aug-30 11:00N 39°23' E 007°50'1 1.1
2017-Aug-30 10:30N 39°23' E 007°50'1 1.9
2017-Aug-30 10:00N 39°22' E 007°50'1 2.5
2017-Aug-30 09:30N 39°21' E 007°49'1 2.6
2017-Aug-30 09:00N 39°20' E 007°48'4 2.6
2017-Aug-30 07:27N 39°16' E 007°47'1 2.6
2017-Aug-30 07:00N 39°15' E 007°47'39 0.9
2017-Aug-28 13:34N 38°45' E 008°19'1 7.4
2017-Aug-28 13:29N 38°45' E 008°20'2 4.9
2017-Aug-28 13:00N 38°43' E 008°22'0 0.1
2017-Aug-28 12:30N 38°43' E 008°22'1 2.5
2017-Aug-28 11:59N 38°42' E 008°23'1 2.6
2017-Aug-28 11:30N 38°41' E 008°24'1 2.6
2017-Aug-28 11:00N 38°40' E 008°25'1 2.6
2017-Aug-28 10:30N 38°39' E 008°26'1 2.6
2017-Aug-28 10:00N 38°39' E 008°28'1 2.7
2017-Aug-28 09:30N 38°38' E 008°29'2 3.0
2017-Aug-28 09:00N 38°36' E 008°29'0 0.8
2017-Aug-28 08:30N 38°36' E 008°29'0 0.3
2017-Aug-28 07:59N 38°36' E 008°29'1 2.5
2017-Aug-28 07:30N 38°37' E 008°28'1 2.5
2017-Aug-28 07:00N 38°38' E 008°27'1 2.5
2017-Aug-28 06:30N 38°39' E 008°26'1 2.5
2017-Aug-28 06:00N 38°40' E 008°25'1 2.6
2017-Aug-28 05:30N 38°41' E 008°24'1 2.5
2017-Aug-28 05:00N 38°42' E 008°23'1 2.5
2017-Aug-28 04:30N 38°43' E 008°22'2 3.7
2017-Aug-28 04:00N 38°45' E 008°23'4 8.7
2017-Aug-28 03:30N 38°49' E 008°22'4 8.7
2017-Aug-28 03:00N 38°54' E 008°21'4 8.8
2017-Aug-28 02:30N 38°58' E 008°21'5 8.9
2017-Aug-28 02:00N 39°03' E 008°20'4 8.5
2017-Aug-28 01:30N 39°07' E 008°21'  
2017-Aug-25 08:06N 39°29' E 007°59'0 2.6
2017-Aug-25 08:00N 39°29' E 007°59'1 2.5
2017-Aug-25 07:30N 39°28' E 007°57'2 2.5
2017-Aug-25 06:47N 39°27' E 007°55'1 2.5
2017-Aug-25 06:29N 39°27' E 007°55'  
2017-Aug-22 20:19N 39°07' E 008°22'  
Track history (hours):
 
Tides and Currents Weather Stations Pressure Air Temp Water Temp Dewpoint Dewpoint Depression Visibility Wind Speed Wind Dir Waves Ship Positions

Veronica

Last reported at 2017-Aug-30 14:28 UTC. Time now 2017-Oct-19 21:51 UTC.
Position N 39°28' E 007°55'.
Warning: this ship's position is 50 days out of date.

Length 30 m.

Type: Fishing. MMSI: 247151990.

Date/timePositionNaut miles runAvg speedWind from/ knotsBaromVisibWave heightAir tempDewpointWater temp
2017-Aug-30 14:28N 39°28' E 007°55'7 2.0
2017-Aug-30 11:11N 39°23' E 007°50'0 0.7
2017-Aug-30 11:00N 39°23' E 007°50'1 1.1
2017-Aug-30 10:30N 39°23' E 007°50'1 1.9
2017-Aug-30 10:00N 39°22' E 007°50'1 2.5
2017-Aug-30 09:30N 39°21' E 007°49'1 2.6
2017-Aug-30 09:00N 39°20' E 007°48'4 2.6
2017-Aug-30 07:27N 39°16' E 007°47'1 2.6
2017-Aug-30 07:00N 39°15' E 007°47'39 0.9
2017-Aug-28 13:34N 38°45' E 008°19'1 7.4
2017-Aug-28 13:29N 38°45' E 008°20'2 4.9
2017-Aug-28 13:00N 38°43' E 008°22'0 0.1
2017-Aug-28 12:30N 38°43' E 008°22'1 2.5
2017-Aug-28 11:59N 38°42' E 008°23'1 2.6
2017-Aug-28 11:30N 38°41' E 008°24'1 2.6
2017-Aug-28 11:00N 38°40' E 008°25'1 2.6
2017-Aug-28 10:30N 38°39' E 008°26'1 2.6
2017-Aug-28 10:00N 38°39' E 008°28'1 2.7
2017-Aug-28 09:30N 38°38' E 008°29'2 3.0
2017-Aug-28 09:00N 38°36' E 008°29'0 0.8
2017-Aug-28 08:30N 38°36' E 008°29'0 0.3
2017-Aug-28 07:59N 38°36' E 008°29'1 2.5
2017-Aug-28 07:30N 38°37' E 008°28'1 2.5
2017-Aug-28 07:00N 38°38' E 008°27'1 2.5
2017-Aug-28 06:30N 38°39' E 008°26'1 2.5
2017-Aug-28 06:00N 38°40' E 008°25'1 2.6
2017-Aug-28 05:30N 38°41' E 008°24'1 2.5
2017-Aug-28 05:00N 38°42' E 008°23'1 2.5
2017-Aug-28 04:30N 38°43' E 008°22'2 3.7
2017-Aug-28 04:00N 38°45' E 008°23'4 8.7
2017-Aug-28 03:30N 38°49' E 008°22'4 8.7
2017-Aug-28 03:00N 38°54' E 008°21'4 8.8
2017-Aug-28 02:30N 38°58' E 008°21'5 8.9
2017-Aug-28 02:00N 39°03' E 008°20'4 8.5
2017-Aug-28 01:30N 39°07' E 008°21'  
2017-Aug-25 08:06N 39°29' E 007°59'0 2.6
2017-Aug-25 08:00N 39°29' E 007°59'1 2.5
2017-Aug-25 07:30N 39°28' E 007°57'2 2.5
2017-Aug-25 06:47N 39°27' E 007°55'1 2.5
2017-Aug-25 06:29N 39°27' E 007°55'  
2017-Aug-22 20:19N 39°07' E 008°22'  

Dump ship's entire track history